sensor_id;sensor_type;location;lat;lon;timestamp;pressure;altitude;pressure_sealevel;temperature;humidity
56400;BME280;42298;53.638;9.876;2022-11-20T00:00:52;101017.88;;;5.46;64.05
56400;BME280;42298;53.638;9.876;2022-11-20T00:03:18;101011.63;;;5.46;63.98
56400;BME280;42298;53.638;9.876;2022-11-20T00:05:44;101009.16;;;5.44;64.07
56400;BME280;42298;53.638;9.876;2022-11-20T00:08:09;101011.34;;;5.52;63.85
56400;BME280;42298;53.638;9.876;2022-11-20T00:10:39;101013.81;;;5.59;64.24
56400;BME280;42298;53.638;9.876;2022-11-20T00:13:04;101005.91;;;5.57;64.13
56400;BME280;42298;53.638;9.876;2022-11-20T00:15:30;101009.72;;;5.56;63.78
56400;BME280;42298;53.638;9.876;2022-11-20T00:17:56;101001.81;;;5.55;63.96
56400;BME280;42298;53.638;9.876;2022-11-20T00:20:21;100997.41;;;5.54;64.32
56400;BME280;42298;53.638;9.876;2022-11-20T00:22:46;100998.78;;;5.51;64.14
56400;BME280;42298;53.638;9.876;2022-11-20T00:25:12;101003.16;;;5.47;64.36
56400;BME280;42298;53.638;9.876;2022-11-20T00:27:38;101005.63;;;5.49;64.45
56400;BME280;42298;53.638;9.876;2022-11-20T00:30:04;101002.03;;;5.43;64.06
56400;BME280;42298;53.638;9.876;2022-11-20T00:32:30;101004.50;;;5.45;64.14
56400;BME280;42298;53.638;9.876;2022-11-20T00:34:55;101000.41;;;5.47;64.63
56400;BME280;42298;53.638;9.876;2022-11-20T00:37:20;101004.78;;;5.48;64.57
56400;BME280;42298;53.638;9.876;2022-11-20T00:39:46;101004.25;;;5.51;64.33
56400;BME280;42298;53.638;9.876;2022-11-20T00:42:11;100993.03;;;5.48;64.49
56400;BME280;42298;53.638;9.876;2022-11-20T00:44:37;101003.41;;;5.51;64.99
56400;BME280;42298;53.638;9.876;2022-11-20T00:47:02;100996.59;;;5.53;64.41
56400;BME280;42298;53.638;9.876;2022-11-20T00:49:27;101003.97;;;5.53;64.74
56400;BME280;42298;53.638;9.876;2022-11-20T00:51:52;101000.94;;;5.49;65.10
56400;BME280;42298;53.638;9.876;2022-11-20T00:54:19;100993.84;;;5.48;64.70
56400;BME280;42298;53.638;9.876;2022-11-20T00:56:44;100999.31;;;5.48;64.81
56400;BME280;42298;53.638;9.876;2022-11-20T00:59:10;100986.75;;;5.42;65.43
56400;BME280;42298;53.638;9.876;2022-11-20T01:01:37;100997.16;;;5.50;65.33
56400;BME280;42298;53.638;9.876;2022-11-20T01:04:02;100993.56;;;5.45;65.30
56400;BME280;42298;53.638;9.876;2022-11-20T01:06:31;100996.59;;;5.53;65.42
56400;BME280;42298;53.638;9.876;2022-11-20T01:08:59;100991.66;;;5.45;65.96
56400;BME280;42298;53.638;9.876;2022-11-20T01:11:27;100997.41;;;5.44;66.31
56400;BME280;42298;53.638;9.876;2022-11-20T01:13:55;100992.19;;;5.32;66.73
56400;BME280;42298;53.638;9.876;2022-11-20T01:16:24;100995.19;;;5.31;67.34
56400;BME280;42298;53.638;9.876;2022-11-20T01:18:52;100992.16;;;5.27;67.88
56400;BME280;42298;53.638;9.876;2022-11-20T01:21:19;100978.78;;;5.26;67.95
56400;BME280;42298;53.638;9.876;2022-11-20T01:23:45;100990.81;;;5.25;68.40
56400;BME280;42298;53.638;9.876;2022-11-20T01:26:13;100975.25;;;5.30;68.27
56400;BME280;42298;53.638;9.876;2022-11-20T01:28:40;100976.88;;;5.31;67.98
56400;BME280;42298;53.638;9.876;2022-11-20T01:31:19;100975.25;;;5.40;67.74
56400;BME280;42298;53.638;9.876;2022-11-20T01:33:47;100972.78;;;5.39;68.01
56400;BME280;42298;53.638;9.876;2022-11-20T01:36:14;100972.28;;;5.47;67.48
56400;BME280;42298;53.638;9.876;2022-11-20T01:38:40;100961.06;;;5.48;67.48
56400;BME280;42298;53.638;9.876;2022-11-20T01:41:06;100968.47;;;5.53;67.74
56400;BME280;42298;53.638;9.876;2022-11-20T01:43:32;100958.38;;;5.53;67.62
56400;BME280;42298;53.638;9.876;2022-11-20T01:46:06;100953.44;;;5.60;67.39
56400;BME280;42298;53.638;9.876;2022-11-20T01:48:58;100941.97;;;5.53;67.27
56400;BME280;42298;53.638;9.876;2022-11-20T01:51:29;100956.16;;;5.55;67.38
56400;BME280;42298;53.638;9.876;2022-11-20T01:54:01;100945.25;;;5.60;67.01
56400;BME280;42298;53.638;9.876;2022-11-20T01:56:29;100951.28;;;5.62;66.83
56400;BME280;42298;53.638;9.876;2022-11-20T01:58:58;100938.16;;;5.64;66.90
56400;BME280;42298;53.638;9.876;2022-11-20T02:01:24;100931.59;;;5.50;67.10
56400;BME280;42298;53.638;9.876;2022-11-20T02:03:50;100938.16;;;5.54;67.40
56400;BME280;42298;53.638;9.876;2022-11-20T02:06:36;100931.88;;;5.59;67.25
56400;BME280;42298;53.638;9.876;2022-11-20T02:09:04;100941.41;;;5.61;67.11
56400;BME280;42298;53.638;9.876;2022-11-20T02:11:31;100932.69;;;5.59;67.32
56400;BME280;42298;53.638;9.876;2022-11-20T02:13:56;100927.75;;;5.61;67.07
56400;BME280;42298;53.638;9.876;2022-11-20T02:16:36;100932.44;;;5.61;67.20
56400;BME280;42298;53.638;9.876;2022-11-20T02:19:06;100925.03;;;5.51;67.21
56400;BME280;42298;53.638;9.876;2022-11-20T02:21:38;100932.69;;;5.54;66.87
56400;BME280;42298;53.638;9.876;2022-11-20T02:24:11;100925.03;;;5.51;67.47
56400;BME280;42298;53.638;9.876;2022-11-20T02:26:45;100921.47;;;5.56;67.57
56400;BME280;42298;53.638;9.876;2022-11-20T02:29:14;100914.38;;;5.45;67.09
56400;BME280;42298;53.638;9.876;2022-11-20T02:31:42;100921.75;;;5.49;67.24
56400;BME280;42298;53.638;9.876;2022-11-20T02:34:09;100909.72;;;5.40;67.26
56400;BME280;42298;53.638;9.876;2022-11-20T02:36:35;100917.66;;;5.47;67.26
56400;BME280;42298;53.638;9.876;2022-11-20T02:39:03;100921.50;;;5.46;67.21
56400;BME280;42298;53.638;9.876;2022-11-20T02:41:36;100917.38;;;5.48;67.48
56400;BME280;42298;53.638;9.876;2022-11-20T02:44:03;100927.75;;;5.51;67.17
56400;BME280;42298;53.638;9.876;2022-11-20T02:46:29;100918.19;;;5.44;67.44
56400;BME280;42298;53.638;9.876;2022-11-20T02:48:55;100923.38;;;5.45;67.47
56400;BME280;42298;53.638;9.876;2022-11-20T02:51:20;100916.00;;;5.36;67.90
56400;BME280;42298;53.638;9.876;2022-11-20T02:53:45;100911.34;;;5.36;67.46
56400;BME280;42298;53.638;9.876;2022-11-20T02:56:11;100903.72;;;5.33;67.76
56400;BME280;42298;53.638;9.876;2022-11-20T02:58:36;100912.72;;;5.34;67.51
56400;BME280;42298;53.638;9.876;2022-11-20T03:01:02;100899.63;;;5.31;67.55
56400;BME280;42298;53.638;9.876;2022-11-20T03:03:27;100895.78;;;5.32;67.86
56400;BME280;42298;53.638;9.876;2022-11-20T03:05:52;100901.53;;;5.40;67.57
56400;BME280;42298;53.638;9.876;2022-11-20T03:08:18;100902.06;;;5.32;66.63
56400;BME280;42298;53.638;9.876;2022-11-20T03:10:43;100907.25;;;5.29;67.61
56400;BME280;42298;53.638;9.876;2022-11-20T03:13:09;100910.81;;;5.29;67.63
56400;BME280;42298;53.638;9.876;2022-11-20T03:15:36;100912.16;;;5.32;67.63
56400;BME280;42298;53.638;9.876;2022-11-20T03:18:03;100908.06;;;5.34;67.53
56400;BME280;42298;53.638;9.876;2022-11-20T03:20:28;100907.28;;;5.34;67.83
56400;BME280;42298;53.638;9.876;2022-11-20T03:22:54;100901.25;;;5.37;67.75
56400;BME280;42298;53.638;9.876;2022-11-20T03:25:20;100898.53;;;5.37;67.64
56400;BME280;42298;53.638;9.876;2022-11-20T03:27:45;100890.06;;;5.38;67.53
56400;BME280;42298;53.638;9.876;2022-11-20T03:30:11;100906.47;;;5.48;67.52
56400;BME280;42298;53.638;9.876;2022-11-20T03:32:36;100892.00;;;5.43;66.44
56400;BME280;42298;53.638;9.876;2022-11-20T03:35:02;100910.28;;;5.47;67.12
56400;BME280;42298;53.638;9.876;2022-11-20T03:37:27;100905.91;;;5.41;67.16
56400;BME280;42298;53.638;9.876;2022-11-20T03:39:53;100890.59;;;5.40;66.86
56400;BME280;42298;53.638;9.876;2022-11-20T03:42:18;100890.88;;;5.39;67.35
56400;BME280;42298;53.638;9.876;2022-11-20T03:45:02;100882.16;;;5.37;67.08
56400;BME280;42298;53.638;9.876;2022-11-20T03:47:28;100890.63;;;5.35;67.47
56400;BME280;42298;53.638;9.876;2022-11-20T03:49:53;100893.88;;;5.42;67.24
56400;BME280;42298;53.638;9.876;2022-11-20T03:52:18;100879.41;;;5.42;67.04
56400;BME280;42298;53.638;9.876;2022-11-20T03:54:44;100882.97;;;5.42;67.08
56400;BME280;42298;53.638;9.876;2022-11-20T03:57:09;100879.69;;;5.40;67.06
56400;BME280;42298;53.638;9.876;2022-11-20T03:59:34;100880.78;;;5.39;67.15
56400;BME280;42298;53.638;9.876;2022-11-20T04:01:59;100867.41;;;5.38;67.16
56400;BME280;42298;53.638;9.876;2022-11-20T04:04:25;100876.41;;;5.38;67.43
56400;BME280;42298;53.638;9.876;2022-11-20T04:06:50;100876.94;;;5.30;67.39
56400;BME280;42298;53.638;9.876;2022-11-20T04:09:15;100876.41;;;5.33;67.67
56400;BME280;42298;53.638;9.876;2022-11-20T04:11:41;100872.59;;;5.29;67.51
56400;BME280;42298;53.638;9.876;2022-11-20T04:14:12;100877.75;;;5.36;67.47
56400;BME280;42298;53.638;9.876;2022-11-20T04:16:38;100887.88;;;5.40;67.86
56400;BME280;42298;53.638;9.876;2022-11-20T04:19:06;100882.97;;;5.47;67.44
56400;BME280;42298;53.638;9.876;2022-11-20T04:21:34;100876.41;;;5.38;67.62
56400;BME280;42298;53.638;9.876;2022-11-20T04:23:59;100872.84;;;5.38;67.94
56400;BME280;42298;53.638;9.876;2022-11-20T04:26:27;100869.59;;;5.41;67.61
56400;BME280;42298;53.638;9.876;2022-11-20T04:28:52;100867.94;;;5.35;67.87
56400;BME280;42298;53.638;9.876;2022-11-20T04:31:23;100868.50;;;5.37;67.55
56400;BME280;42298;53.638;9.876;2022-11-20T04:33:49;100868.47;;;5.32;68.17
56400;BME280;42298;53.638;9.876;2022-11-20T04:36:26;100870.66;;;5.35;67.75
56400;BME280;42298;53.638;9.876;2022-11-20T04:38:58;100860.00;;;5.28;68.41
56400;BME280;42298;53.638;9.876;2022-11-20T04:41:29;100860.03;;;5.33;68.61
56400;BME280;42298;53.638;9.876;2022-11-20T04:43:57;100857.28;;;5.28;68.21
56400;BME280;42298;53.638;9.876;2022-11-20T04:46:32;100865.47;;;5.33;68.13
56400;BME280;42298;53.638;9.876;2022-11-20T04:48:58;100864.66;;;5.33;68.63
56400;BME280;42298;53.638;9.876;2022-11-20T04:51:24;100860.00;;;5.28;68.02
56400;BME280;42298;53.638;9.876;2022-11-20T04:53:49;100860.56;;;5.30;68.21
56400;BME280;42298;53.638;9.876;2022-11-20T04:56:15;100856.22;;;5.29;67.78
56400;BME280;42298;53.638;9.876;2022-11-20T04:58:40;100853.19;;;5.31;68.09
56400;BME280;42298;53.638;9.876;2022-11-20T05:01:17;100848.56;;;5.36;68.35
56400;BME280;42298;53.638;9.876;2022-11-20T05:03:43;100863.03;;;5.42;67.85
56400;BME280;42298;53.638;9.876;2022-11-20T05:06:11;100852.09;;;5.42;67.79
56400;BME280;42298;53.638;9.876;2022-11-20T05:08:37;100844.47;;;5.34;67.92
56400;BME280;42298;53.638;9.876;2022-11-20T05:11:11;100853.75;;;5.43;68.13
56400;BME280;42298;53.638;9.876;2022-11-20T05:13:38;100843.63;;;5.33;67.89
56400;BME280;42298;53.638;9.876;2022-11-20T05:16:06;100848.00;;;5.39;67.93
56400;BME280;42298;53.638;9.876;2022-11-20T05:18:33;100839.28;;;5.42;67.81
56400;BME280;42298;53.638;9.876;2022-11-20T05:20:59;100831.34;;;5.36;67.83
56400;BME280;42298;53.638;9.876;2022-11-20T05:23:25;100832.19;;;5.41;67.34
56400;BME280;42298;53.638;9.876;2022-11-20T05:25:53;100831.06;;;5.42;67.30
56400;BME280;42298;53.638;9.876;2022-11-20T05:28:18;100830.00;;;5.38;67.93
56400;BME280;42298;53.638;9.876;2022-11-20T05:30:44;100820.44;;;5.31;67.48
56400;BME280;42298;53.638;9.876;2022-11-20T05:33:09;100819.88;;;5.29;67.89
56400;BME280;42298;53.638;9.876;2022-11-20T05:35:34;100825.06;;;5.30;67.43
56400;BME280;42298;53.638;9.876;2022-11-20T05:38:00;100820.13;;;5.22;67.68
56400;BME280;42298;53.638;9.876;2022-11-20T05:40:25;100814.44;;;5.19;68.29
56400;BME280;42298;53.638;9.876;2022-11-20T05:42:50;100806.50;;;5.17;67.76
56400;BME280;42298;53.638;9.876;2022-11-20T05:45:15;100806.50;;;5.22;68.08
56400;BME280;42298;53.638;9.876;2022-11-20T05:47:41;100817.97;;;5.24;68.04
56400;BME280;42298;53.638;9.876;2022-11-20T05:50:06;100804.59;;;5.23;67.78
56400;BME280;42298;53.638;9.876;2022-11-20T05:52:32;100804.59;;;5.23;67.42
56400;BME280;42298;53.638;9.876;2022-11-20T05:54:57;100803.75;;;5.22;67.89
56400;BME280;42298;53.638;9.876;2022-11-20T05:57:22;100809.22;;;5.22;67.88
56400;BME280;42298;53.638;9.876;2022-11-20T05:59:47;100806.50;;;5.17;67.80
56400;BME280;42298;53.638;9.876;2022-11-20T06:02:13;100801.06;;;5.07;67.69
56400;BME280;42298;53.638;9.876;2022-11-20T06:04:38;100797.78;;;5.05;67.79
56400;BME280;42298;53.638;9.876;2022-11-20T06:07:05;100807.31;;;5.08;68.25
56400;BME280;42298;53.638;9.876;2022-11-20T06:09:31;100802.66;;;5.03;68.19
56400;BME280;42298;53.638;9.876;2022-11-20T06:11:56;100813.59;;;5.08;68.09
56400;BME280;42298;53.638;9.876;2022-11-20T06:14:21;100800.22;;;5.07;68.56
56400;BME280;42298;53.638;9.876;2022-11-20T06:16:46;100813.88;;;5.07;68.32
56400;BME280;42298;53.638;9.876;2022-11-20T06:19:12;100807.03;;;4.99;68.32
56400;BME280;42298;53.638;9.876;2022-11-20T06:21:37;100799.41;;;4.96;68.76
56400;BME280;42298;53.638;9.876;2022-11-20T06:24:02;100804.31;;;4.99;68.38
56400;BME280;42298;53.638;9.876;2022-11-20T06:26:30;100820.44;;;5.06;68.24
56400;BME280;42298;53.638;9.876;2022-11-20T06:28:55;100820.69;;;4.99;67.85
56400;BME280;42298;53.638;9.876;2022-11-20T06:31:22;100820.41;;;4.96;67.79
56400;BME280;42298;53.638;9.876;2022-11-20T06:33:48;100811.66;;;4.84;67.62
56400;BME280;42298;53.638;9.876;2022-11-20T06:36:16;100817.66;;;4.86;67.82
56400;BME280;42298;53.638;9.876;2022-11-20T06:38:42;100807.81;;;4.75;67.67
56400;BME280;42298;53.638;9.876;2022-11-20T06:41:11;100811.91;;;4.72;67.70
56400;BME280;42298;53.638;9.876;2022-11-20T06:43:37;100817.34;;;4.67;68.04
56400;BME280;42298;53.638;9.876;2022-11-20T06:46:02;100815.16;;;4.64;67.81
56400;BME280;42298;53.638;9.876;2022-11-20T06:48:28;100807.50;;;4.61;67.30
56400;BME280;42298;53.638;9.876;2022-11-20T06:50:54;100804.78;;;4.61;68.07
56400;BME280;42298;53.638;9.876;2022-11-20T06:53:20;100804.53;;;4.58;67.56
56400;BME280;42298;53.638;9.876;2022-11-20T06:55:46;100803.13;;;4.55;67.61
56400;BME280;42298;53.638;9.876;2022-11-20T06:58:13;100809.94;;;4.53;66.50
56400;BME280;42298;53.638;9.876;2022-11-20T07:00:39;100805.56;;;4.47;67.69
56400;BME280;42298;53.638;9.876;2022-11-20T07:03:06;100817.88;;;4.59;67.72
56400;BME280;42298;53.638;9.876;2022-11-20T07:05:32;100815.69;;;4.61;67.82
56400;BME280;42298;53.638;9.876;2022-11-20T07:07:57;100811.34;;;4.60;67.57
56400;BME280;42298;53.638;9.876;2022-11-20T07:10:24;100817.63;;;4.71;68.33
56400;BME280;42298;53.638;9.876;2022-11-20T07:12:51;100801.53;;;4.69;68.60
56400;BME280;42298;53.638;9.876;2022-11-20T07:15:18;100796.63;;;4.76;68.37
56400;BME280;42298;53.638;9.876;2022-11-20T07:17:44;100810.31;;;4.86;68.71
56400;BME280;42298;53.638;9.876;2022-11-20T07:20:09;100805.94;;;4.90;68.21
56400;BME280;42298;53.638;9.876;2022-11-20T07:22:36;100805.41;;;5.03;67.74
56400;BME280;42298;53.638;9.876;2022-11-20T07:25:02;100802.66;;;5.03;67.90
56400;BME280;42298;53.638;9.876;2022-11-20T07:27:29;100803.25;;;5.10;67.77
56400;BME280;42298;53.638;9.876;2022-11-20T07:29:54;100808.69;;;5.15;68.21
56400;BME280;42298;53.638;9.876;2022-11-20T07:32:20;100796.66;;;5.16;68.18
56400;BME280;42298;53.638;9.876;2022-11-20T07:34:45;100798.31;;;5.17;67.85
56400;BME280;42298;53.638;9.876;2022-11-20T07:37:11;100801.59;;;5.14;67.83
56400;BME280;42298;53.638;9.876;2022-11-20T07:39:36;100801.59;;;5.09;68.17
56400;BME280;42298;53.638;9.876;2022-11-20T07:42:03;100799.97;;;5.08;68.14
56400;BME280;42298;53.638;9.876;2022-11-20T07:44:28;100801.03;;;5.12;68.18
56400;BME280;42298;53.638;9.876;2022-11-20T07:46:54;100799.13;;;5.18;67.25
56400;BME280;42298;53.638;9.876;2022-11-20T07:49:19;100804.84;;;5.16;67.89
56400;BME280;42298;53.638;9.876;2022-11-20T07:51:45;100792.88;;;5.17;67.98
56400;BME280;42298;53.638;9.876;2022-11-20T07:54:11;100789.03;;;5.23;67.69
56400;BME280;42298;53.638;9.876;2022-11-20T07:56:38;100797.78;;;5.35;67.47
56400;BME280;42298;53.638;9.876;2022-11-20T07:59:03;100806.22;;;5.44;66.91
56400;BME280;42298;53.638;9.876;2022-11-20T08:01:29;100807.06;;;5.44;66.98
56400;BME280;42298;53.638;9.876;2022-11-20T08:03:54;100809.22;;;5.47;66.84
56400;BME280;42298;53.638;9.876;2022-11-20T08:06:25;100803.50;;;5.49;66.89
56400;BME280;42298;53.638;9.876;2022-11-20T08:08:53;100813.59;;;5.48;67.13
56400;BME280;42298;53.638;9.876;2022-11-20T08:11:24;100801.03;;;5.47;66.49
56400;BME280;42298;53.638;9.876;2022-11-20T08:14:28;100803.75;;;5.42;66.46
56400;BME280;42298;53.638;9.876;2022-11-20T08:16:55;100805.16;;;5.40;66.99
56400;BME280;42298;53.638;9.876;2022-11-20T08:19:20;100801.31;;;5.41;67.17
56400;BME280;42298;53.638;9.876;2022-11-20T08:21:55;100804.84;;;5.46;66.78
56400;BME280;42298;53.638;9.876;2022-11-20T08:24:23;100813.03;;;5.46;66.75
56400;BME280;42298;53.638;9.876;2022-11-20T08:26:52;100800.22;;;5.37;66.89
56400;BME280;42298;53.638;9.876;2022-11-20T08:29:18;100806.78;;;5.41;67.17
56400;BME280;42298;53.638;9.876;2022-11-20T08:31:43;100793.94;;;5.31;67.24
56400;BME280;42298;53.638;9.876;2022-11-20T08:34:09;100808.41;;;5.42;66.85
56400;BME280;42298;53.638;9.876;2022-11-20T08:36:37;100818.22;;;5.53;66.87
56400;BME280;42298;53.638;9.876;2022-11-20T08:39:03;100811.69;;;5.49;67.26
56400;BME280;42298;53.638;9.876;2022-11-20T08:41:31;100813.59;;;5.53;66.92
56400;BME280;42298;53.638;9.876;2022-11-20T08:44:03;100807.56;;;5.66;67.16
56400;BME280;42298;53.638;9.876;2022-11-20T08:49:05;100815.22;;;5.69;67.12
56400;BME280;42298;53.638;9.876;2022-11-20T08:51:31;100815.47;;;5.78;67.00
56400;BME280;42298;53.638;9.876;2022-11-20T08:53:57;100819.28;;;5.87;67.11
56400;BME280;42298;53.638;9.876;2022-11-20T08:56:22;100791.69;;;5.78;66.27
56400;BME280;42298;53.638;9.876;2022-11-20T08:58:49;100818.75;;;5.95;67.15
56400;BME280;42298;53.638;9.876;2022-11-20T09:01:15;100801.00;;;5.82;66.36
56400;BME280;42298;53.638;9.876;2022-11-20T09:03:40;100820.41;;;5.86;66.14
56400;BME280;42298;53.638;9.876;2022-11-20T09:06:07;100823.09;;;5.81;67.04
56400;BME280;42298;53.638;9.876;2022-11-20T09:08:33;100812.47;;;5.84;66.91
56400;BME280;42298;53.638;9.876;2022-11-20T09:10:59;100817.38;;;5.82;66.78
56400;BME280;42298;53.638;9.876;2022-11-20T09:13:26;100822.59;;;5.84;67.38
56400;BME280;42298;53.638;9.876;2022-11-20T09:15:56;100807.25;;;5.78;67.15
56400;BME280;42298;53.638;9.876;2022-11-20T09:18:22;100799.06;;;5.78;67.33
56400;BME280;42298;53.638;9.876;2022-11-20T09:20:48;100814.09;;;5.85;67.69
56400;BME280;42298;53.638;9.876;2022-11-20T09:23:14;100809.75;;;5.84;67.25
56400;BME280;42298;53.638;9.876;2022-11-20T09:25:39;100813.28;;;5.95;66.87
56400;BME280;42298;53.638;9.876;2022-11-20T09:28:04;100821.47;;;5.95;67.50
56400;BME280;42298;53.638;9.876;2022-11-20T09:30:30;100813.28;;;5.90;66.83
56400;BME280;42298;53.638;9.876;2022-11-20T09:32:56;100815.19;;;6.00;67.33
56400;BME280;42298;53.638;9.876;2022-11-20T09:35:21;100814.63;;;5.98;67.36
56400;BME280;42298;53.638;9.876;2022-11-20T09:37:46;100817.31;;;6.13;67.05
56400;BME280;42298;53.638;9.876;2022-11-20T09:40:24;100803.88;;;6.21;66.84
56400;BME280;42298;53.638;9.876;2022-11-20T09:45:39;100824.84;;;6.41;66.98
56400;BME280;42298;53.638;9.876;2022-11-20T09:51:02;100807.59;;;6.45;66.66
56400;BME280;42298;53.638;9.876;2022-11-20T09:53:50;100813.06;;;6.50;66.32
56400;BME280;42298;53.638;9.876;2022-11-20T09:56:19;100825.34;;;6.58;66.86
56400;BME280;42298;53.638;9.876;2022-11-20T09:58:48;100811.59;;;6.68;66.77
56400;BME280;42298;53.638;9.876;2022-11-20T10:01:15;100816.75;;;6.74;67.22
56400;BME280;42298;53.638;9.876;2022-11-20T10:03:50;100801.41;;;6.78;66.72
56400;BME280;42298;53.638;9.876;2022-11-20T10:06:23;100806.81;;;6.88;65.99
56400;BME280;42298;53.638;9.876;2022-11-20T10:09:06;100798.63;;;6.83;65.44
56400;BME280;42298;53.638;9.876;2022-11-20T10:11:51;100810.09;;;6.90;65.93
56400;BME280;42298;53.638;9.876;2022-11-20T10:17:19;100799.66;;;6.97;65.86
56400;BME280;42298;53.638;9.876;2022-11-20T10:22:39;100802.84;;;7.09;65.88
56400;BME280;42298;53.638;9.876;2022-11-20T10:30:26;100795.06;;;6.83;64.52
56400;BME280;42298;53.638;9.876;2022-11-20T10:33:39;100773.03;;;6.64;65.07
56400;BME280;42298;53.638;9.876;2022-11-20T10:35:49;100779.41;;;6.50;65.08
56400;BME280;42298;53.638;9.876;2022-11-20T10:38:23;100793.13;;;6.40;64.73
56400;BME280;42298;53.638;9.876;2022-11-20T10:40:57;100782.78;;;6.32;65.22
56400;BME280;42298;53.638;9.876;2022-11-20T10:43:44;100788.16;;;6.52;65.91
56400;BME280;42298;53.638;9.876;2022-11-20T10:46:19;100787.94;;;6.87;66.23
56400;BME280;42298;53.638;9.876;2022-11-20T10:48:48;100769.84;;;6.91;64.70
56400;BME280;42298;53.638;9.876;2022-11-20T10:56:35;100759.59;;;7.06;64.43
56400;BME280;42298;53.638;9.876;2022-11-20T11:01:54;100781.72;;;7.15;64.01
56400;BME280;42298;53.638;9.876;2022-11-20T11:04:35;100775.81;;;7.31;63.87
56400;BME280;42298;53.638;9.876;2022-11-20T11:09:39;100779.50;;;7.17;63.60
56400;BME280;42298;53.638;9.876;2022-11-20T11:12:08;100771.88;;;7.14;63.65
56400;BME280;42298;53.638;9.876;2022-11-20T11:14:45;100772.81;;;7.28;63.13
56400;BME280;42298;53.638;9.876;2022-11-20T11:22:44;100759.59;;;7.35;62.94
56400;BME280;42298;53.638;9.876;2022-11-20T11:25:19;100753.97;;;7.21;62.82
56400;BME280;42298;53.638;9.876;2022-11-20T11:27:47;100758.75;;;7.11;62.68
56400;BME280;42298;53.638;9.876;2022-11-20T11:30:18;100758.22;;;7.09;62.05
56400;BME280;42298;53.638;9.876;2022-11-20T11:32:45;100760.97;;;7.04;63.11
56400;BME280;42298;53.638;9.876;2022-11-20T11:35:26;100759.75;;;7.20;62.90
56400;BME280;42298;53.638;9.876;2022-11-20T11:37:54;100757.78;;;7.25;62.90
56400;BME280;42298;53.638;9.876;2022-11-20T11:40:21;100757.50;;;7.27;62.63
56400;BME280;42298;53.638;9.876;2022-11-20T11:42:52;100757.22;;;7.28;62.65
56400;BME280;42298;53.638;9.876;2022-11-20T11:45:19;100751.19;;;7.26;62.80
56400;BME280;42298;53.638;9.876;2022-11-20T11:47:46;100750.34;;;7.31;63.15
56400;BME280;42298;53.638;9.876;2022-11-20T11:50:19;100730.22;;;7.17;62.46
56400;BME280;42298;53.638;9.876;2022-11-20T11:56:09;100757.50;;;7.27;62.66
56400;BME280;42298;53.638;9.876;2022-11-20T11:58:47;100749.88;;;7.24;63.19
56400;BME280;42298;53.638;9.876;2022-11-20T12:03:59;100737.59;;;7.16;63.54
56400;BME280;42298;53.638;9.876;2022-11-20T12:06:27;100733.53;;;7.14;63.37
56400;BME280;42298;53.638;9.876;2022-11-20T12:08:59;100749.50;;;7.30;62.58
56400;BME280;42298;53.638;9.876;2022-11-20T12:11:58;100755.78;;;7.36;62.45
56400;BME280;42298;53.638;9.876;2022-11-20T12:14:37;100755.72;;;7.41;62.66
56400;BME280;42298;53.638;9.876;2022-11-20T12:17:03;100747.78;;;7.39;62.78
56400;BME280;42298;53.638;9.876;2022-11-20T12:19:34;100746.69;;;7.40;62.75
56400;BME280;42298;53.638;9.876;2022-11-20T12:22:12;100729.47;;;7.35;62.13
56400;BME280;42298;53.638;9.876;2022-11-20T12:24:53;100740.56;;;7.48;61.65
56400;BME280;42298;53.638;9.876;2022-11-20T12:30:14;100723.97;;;7.40;60.93
56400;BME280;42298;53.638;9.876;2022-11-20T12:36:16;100729.44;;;7.40;60.59
56400;BME280;42298;53.638;9.876;2022-11-20T13:06:40;100703.91;;;7.16;61.11
56400;BME280;42298;53.638;9.876;2022-11-20T13:09:11;100711.94;;;7.36;60.46
56400;BME280;42298;53.638;9.876;2022-11-20T13:15:14;100702.00;;;7.45;60.35
56400;BME280;42298;53.638;9.876;2022-11-20T13:17:53;100693.41;;;7.51;60.27
56400;BME280;42298;53.638;9.876;2022-11-20T13:20:19;100683.69;;;7.40;60.73
56400;BME280;42298;53.638;9.876;2022-11-20T13:22:47;100703.56;;;7.51;60.30
56400;BME280;42298;53.638;9.876;2022-11-20T13:25:36;100703.28;;;7.52;60.64
56400;BME280;42298;53.638;9.876;2022-11-20T13:30:47;100692.66;;;7.46;60.13
56400;BME280;42298;53.638;9.876;2022-11-20T13:33:27;100700.72;;;7.61;60.35
56400;BME280;42298;53.638;9.876;2022-11-20T13:36:02;100692.53;;;7.56;60.30
56400;BME280;42298;53.638;9.876;2022-11-20T13:38:50;100696.50;;;7.45;60.56
56400;BME280;42298;53.638;9.876;2022-11-20T13:43:54;100691.31;;;7.43;61.08
56400;BME280;42298;53.638;9.876;2022-11-20T13:46:38;100695.41;;;7.46;61.16
56400;BME280;42298;53.638;9.876;2022-11-20T13:49:09;100688.09;;;7.36;60.26
56400;BME280;42298;53.638;9.876;2022-11-20T13:51:48;100663.19;;;7.09;60.29
56400;BME280;42298;53.638;9.876;2022-11-20T13:57:27;100685.09;;;7.09;59.92
56400;BME280;42298;53.638;9.876;2022-11-20T14:00:21;100672.31;;;7.00;59.96
56400;BME280;42298;53.638;9.876;2022-11-20T14:03:09;100671.13;;;7.11;60.46
56400;BME280;42298;53.638;9.876;2022-11-20T14:05:40;100647.38;;;7.01;60.77
56400;BME280;42298;53.638;9.876;2022-11-20T14:08:22;100661.84;;;7.07;60.30
56400;BME280;42298;53.638;9.876;2022-11-20T14:10:50;100670.78;;;7.17;60.66
56400;BME280;42298;53.638;9.876;2022-11-20T14:13:19;100677.53;;;7.25;60.59
56400;BME280;42298;53.638;9.876;2022-11-20T14:15:44;100672.34;;;7.23;61.02
56400;BME280;42298;53.638;9.876;2022-11-20T14:18:18;100678.59;;;7.29;60.40
56400;BME280;42298;53.638;9.876;2022-11-20T14:20:44;100676.78;;;7.19;60.53
56400;BME280;42298;53.638;9.876;2022-11-20T14:23:11;100683.38;;;7.18;59.96
56400;BME280;42298;53.638;9.876;2022-11-20T14:25:37;100636.19;;;6.98;60.65
56400;BME280;42298;53.638;9.876;2022-11-20T14:28:11;100666.16;;;7.13;60.72
56400;BME280;42298;53.638;9.876;2022-11-20T14:30:47;100660.69;;;7.13;61.17
56400;BME280;42298;53.638;9.876;2022-11-20T14:33:14;100638.63;;;6.99;61.33
56400;BME280;42298;53.638;9.876;2022-11-20T14:35:45;100643.78;;;7.06;60.89